Time;durP1;ratioP1;P1;durP2;ratioP2;P2;SDS_P1;SDS_P2;PMS_P1;PMS_P2;Temp;Humidity;BMP_temperature;BMP_pressure;BME280_temperature;BME280_humidity;BME280_pressure;Samples;Min_cycle;Max_cycle;Signal;HPM_P1;HPM_P2
2020/12/05 00:00:08;;;;;;;19.63;15.63;;;;;;;6.31;76.69;93880.56;5083386;28;20198;-60
2020/12/05 00:02:33;;;;;;;22.60;16.40;;;;;;;6.37;76.58;93850.84;5075604;28;20405;-61
2020/12/05 00:04:59;;;;;;;19.80;15.70;;;;;;;6.51;76.27;93854.47;5081869;28;20554;-62
2020/12/05 00:07:24;;;;;;;21.80;15.27;;;;;;;6.62;76.47;93861.25;5095166;28;20177;-61
2020/12/05 00:09:49;;;;;;;20.30;14.93;;;;;;;6.64;76.15;93880.03;5082352;28;20203;-61
2020/12/05 00:12:15;;;;;;;23.90;19.57;;;;;;;6.65;76.30;93925.16;5075210;28;20549;-63
2020/12/05 00:14:40;;;;;;;23.20;18.77;;;;;;;6.58;76.16;93937.66;5075329;28;20222;-63
2020/12/05 00:17:07;;;;;;;25.93;18.50;;;;;;;6.60;76.41;93899.06;5074974;28;20178;-63
2020/12/05 00:19:32;;;;;;;26.87;17.87;;;;;;;6.64;77.36;93874.03;5075989;28;20553;-62
2020/12/05 00:21:58;;;;;;;22.03;18.07;;;;;;;6.68;77.28;93875.88;5075034;28;20405;-62
2020/12/05 00:24:24;;;;;;;27.13;16.80;;;;;;;6.64;76.91;93853.16;5075087;28;20184;-62
2020/12/05 00:26:51;;;;;;;26.27;17.27;;;;;;;6.63;76.32;93828.13;5074508;28;20664;-62
2020/12/05 00:29:18;;;;;;;23.20;17.97;;;;;;;6.58;76.20;93822.91;5074958;28;20425;-61
2020/12/05 00:31:44;;;;;;;24.30;17.87;;;;;;;6.57;76.27;93826.56;5091837;28;20550;-62
2020/12/05 00:34:09;;;;;;;24.43;17.67;;;;;;;6.61;76.32;93845.88;5074884;28;20903;-62
2020/12/05 00:36:35;;;;;;;23.30;17.33;;;;;;;6.60;75.63;93845.06;5075465;28;20433;-63
2020/12/05 00:39:01;;;;;;;23.97;17.20;;;;;;;6.52;75.69;93835.19;5074778;28;20199;-62
2020/12/05 00:41:27;;;;;;;23.70;18.93;;;;;;;6.42;76.56;93829.19;5074805;28;20220;-63
2020/12/05 00:43:52;;;;;;;20.57;16.50;;;;;;;6.40;77.05;93846.91;5074348;28;20821;-63
2020/12/05 00:46:17;;;;;;;24.80;18.07;;;;;;;6.24;77.68;93872.22;5074329;28;20258;-63
2020/12/05 00:48:43;;;;;;;30.83;19.90;;;;;;;5.91;79.66;93876.09;5074494;28;20170;-63
2020/12/05 00:51:12;;;;;;;22.73;17.60;;;;;;;5.81;80.03;93842.19;5082151;28;20745;-61
2020/12/05 00:53:38;;;;;;;22.83;17.20;;;;;;;5.88;80.82;93831.53;5074873;28;20709;-61
2020/12/05 00:56:03;;;;;;;22.70;16.03;;;;;;;5.97;80.34;93824.75;5074381;28;20421;-63
2020/12/05 00:58:34;;;;;;;24.20;17.27;;;;;;;6.03;80.21;93829.69;5074087;28;20186;-63
2020/12/05 01:01:00;;;;;;;23.23;17.40;;;;;;;6.05;79.24;93840.66;5074467;28;20633;-62
2020/12/05 01:03:25;;;;;;;23.87;16.77;;;;;;;5.97;80.31;93835.19;5073909;28;20420;-61
2020/12/05 01:05:51;;;;;;;24.03;15.80;;;;;;;5.94;81.14;93836.47;5077595;28;20970;-63
2020/12/05 01:08:16;;;;;;;22.60;17.37;;;;;;;5.84;82.11;93849.50;5094187;28;20200;-63
2020/12/05 01:10:41;;;;;;;22.87;16.27;;;;;;;5.77;82.56;93877.59;5094234;28;20197;-61
2020/12/05 01:13:07;;;;;;;20.30;16.50;;;;;;;5.42;85.24;93894.94;5094473;28;20201;-63
2020/12/05 01:15:32;;;;;;;20.97;16.67;;;;;;;5.58;84.96;93899.16;5093876;28;20197;-62
2020/12/05 01:17:57;;;;;;;20.90;16.63;;;;;;;5.44;85.90;93905.84;5088552;28;20197;-62
2020/12/05 01:20:23;;;;;;;22.00;15.97;;;;;;;5.43;86.54;93910.28;5073821;28;20205;-62
2020/12/05 01:22:49;;;;;;;17.73;15.83;;;;;;;5.09;88.44;93932.50;5073738;28;20376;-61
2020/12/05 01:25:15;;;;;;;21.20;15.83;;;;;;;5.19;89.38;93935.94;5073962;28;20181;-61
2020/12/05 01:27:40;;;;;;;21.50;16.00;;;;;;;5.38;88.45;93944.09;5073354;28;20432;-61
2020/12/05 01:30:06;;;;;;;20.00;16.70;;;;;;;5.24;89.20;93953.41;5073884;28;20187;-61
2020/12/05 01:32:31;;;;;;;19.30;17.07;;;;;;;5.39;88.46;93968.31;5074064;28;20205;-62
2020/12/05 01:34:57;;;;;;;22.23;16.93;;;;;;;5.10;90.95;93965.28;5085682;28;20839;-63
2020/12/05 01:37:22;;;;;;;22.43;17.50;;;;;;;5.11;90.24;93959.03;5081485;28;20181;-61
2020/12/05 01:39:47;;;;;;;19.47;16.90;;;;;;;5.04;90.47;93948.88;5073512;28;20192;-63
2020/12/05 01:42:13;;;;;;;21.70;16.90;;;;;;;5.03;90.68;93944.72;5073504;28;20181;-63
2020/12/05 01:44:38;;;;;;;19.87;16.07;;;;;;;5.21;89.66;93956.50;5073734;28;20170;-61
2020/12/05 01:47:04;;;;;;;20.53;16.80;;;;;;;5.20;90.38;93947.91;5074238;28;20173;-62
2020/12/05 01:49:29;;;;;;;18.37;15.50;;;;;;;5.20;89.77;93955.72;5073680;28;20190;-63
2020/12/05 01:51:55;;;;;;;23.23;18.17;;;;;;;5.29;89.47;93948.22;5073669;28;20206;-61
2020/12/05 01:54:21;;;;;;;18.93;16.50;;;;;;;5.39;87.83;93956.09;5074143;28;20639;-64
2020/12/05 01:56:57;;;;;;;19.20;16.00;;;;;;;5.12;89.52;93955.41;5072590;28;20429;-64
2020/12/05 01:59:22;;;;;;;19.80;15.50;;;;;;;5.31;89.06;93966.97;5073581;28;20566;-61
2020/12/05 02:01:48;;;;;;;17.23;14.90;;;;;;;5.19;87.75;93988.00;5075032;28;20421;-64
2020/12/05 02:04:13;;;;;;;17.07;14.80;;;;;;;4.49;90.53;93984.06;5094024;28;20200;-63
2020/12/05 02:06:48;;;;;;;17.10;14.60;;;;;;;4.77;90.07;93968.97;5076291;28;20187;-63
2020/12/05 02:09:28;;;;;;;21.00;15.10;;;;;;;4.86;88.89;93980.47;5073286;28;20200;-64
2020/12/05 02:12:19;;;;;;;19.87;14.63;;;;;;;4.89;87.60;93974.00;5073419;28;20472;-61
2020/12/05 02:14:49;;;;;;;16.70;14.50;;;;;;;5.03;87.04;93980.34;5073528;28;20412;-63
2020/12/05 02:17:16;;;;;;;17.60;14.80;;;;;;;5.17;86.84;94000.47;5072635;28;20515;-64
2020/12/05 02:19:48;;;;;;;17.30;14.87;;;;;;;4.96;86.98;94018.81;5073060;28;20451;-61
2020/12/05 02:22:18;;;;;;;19.43;15.03;;;;;;;4.72;87.34;94043.56;5073057;28;20465;-60
2020/12/05 02:24:46;;;;;;;17.07;14.70;;;;;;;4.64;88.51;94044.03;5073116;28;20411;-61
2020/12/05 02:27:12;;;;;;;16.27;13.23;;;;;;;4.75;88.41;94036.03;5073679;28;20455;-61
2020/12/05 02:29:37;;;;;;;14.03;12.40;;;;;;;4.54;88.60;94057.69;5077459;28;20918;-63
2020/12/05 02:32:04;;;;;;;14.33;12.83;;;;;;;4.59;88.86;94056.94;5096496;28;20208;-63
2020/12/05 02:34:32;;;;;;;15.17;13.57;;;;;;;4.65;88.71;94054.16;5096248;28;20183;-61
2020/12/05 02:37:02;;;;;;;12.97;11.67;;;;;;;4.38;89.88;94050.00;5097123;28;20408;-62
2020/12/05 02:39:29;;;;;;;13.83;12.43;;;;;;;4.38;90.12;94053.38;5092922;28;21239;-61
2020/12/05 02:41:54;;;;;;;12.70;11.40;;;;;;;4.37;90.03;94051.00;5077086;28;20418;-63
2020/12/05 02:44:20;;;;;;;13.83;11.27;;;;;;;4.11;91.62;94068.91;5078054;28;20420;-64
2020/12/05 02:46:49;;;;;;;13.23;11.90;;;;;;;4.29;91.35;94083.44;5076575;28;20940;-63
2020/12/05 02:49:15;;;;;;;12.70;11.40;;;;;;;4.26;90.74;94101.31;5076856;28;20204;-61
2020/12/05 02:51:41;;;;;;;15.23;12.47;;;;;;;4.16;91.77;94127.97;5076787;28;20449;-63
2020/12/05 02:54:07;;;;;;;14.53;12.60;;;;;;;4.46;90.71;94143.13;5076660;28;20236;-61
2020/12/05 02:56:32;;;;;;;15.10;12.70;;;;;;;4.37;90.46;94160.94;5056372;28;20200;-63
2020/12/05 02:58:58;;;;;;;17.23;13.93;;;;;;;4.46;90.51;94169.09;5078723;28;20447;-63
2020/12/05 03:01:23;;;;;;;14.33;12.83;;;;;;;4.19;90.69;94184.63;5076739;28;20174;-61
2020/12/05 03:03:48;;;;;;;13.93;11.73;;;;;;;4.13;91.39;94175.97;5076674;28;20502;-61
2020/12/05 03:06:14;;;;;;;12.80;11.47;;;;;;;4.00;91.94;94191.13;5076620;28;20225;-63
2020/12/05 03:08:39;;;;;;;13.17;11.67;;;;;;;4.04;92.46;94185.22;5076017;28;20194;-61
2020/12/05 03:11:04;;;;;;;12.97;11.67;;;;;;;3.99;91.82;94198.13;5077176;28;20190;-62
2020/12/05 03:13:30;;;;;;;12.87;11.43;;;;;;;3.84;93.27;94197.13;5076543;28;20186;-63
2020/12/05 03:15:55;;;;;;;12.20;11.00;;;;;;;3.71;93.78;94206.03;5075929;28;20646;-63
2020/12/05 03:18:21;;;;;;;11.10;9.93;;;;;;;3.99;93.53;94190.34;5076123;28;20174;-62
2020/12/05 03:20:46;;;;;;;12.10;10.83;;;;;;;3.88;93.49;94191.22;5076081;28;20285;-63
2020/12/05 03:23:11;;;;;;;13.50;9.53;;;;;;;3.82;93.10;94165.44;5076413;28;20182;-62
2020/12/05 03:25:37;;;;;;;13.23;11.57;;;;;;;3.96;92.53;94161.47;5086241;28;20290;-62
2020/12/05 03:28:02;;;;;;;12.07;10.60;;;;;;;3.89;93.16;94138.28;5096018;28;20546;-62
2020/12/05 03:30:27;;;;;;;14.40;11.17;;;;;;;3.98;93.25;94146.44;5096475;28;20189;-63
2020/12/05 03:32:53;;;;;;;13.10;10.87;;;;;;;4.34;92.42;94161.44;5096526;28;20197;-62
2020/12/05 03:35:18;;;;;;;13.63;11.20;;;;;;;4.56;90.43;94188.25;5079792;28;20706;-62
2020/12/05 03:37:44;;;;;;;12.83;9.70;;;;;;;4.48;89.95;94203.44;5075103;28;20216;-61
2020/12/05 03:40:09;;;;;;;13.00;10.60;;;;;;;4.57;90.55;94215.00;5076222;28;20282;-62
2020/12/05 03:42:38;;;;;;;12.23;10.93;;;;;;;4.50;90.35;94222.19;5075906;28;20250;-61
2020/12/05 03:45:04;;;;;;;13.73;10.87;;;;;;;4.45;90.38;94222.13;5075764;28;20174;-62
2020/12/05 03:47:29;;;;;;;13.70;11.23;;;;;;;4.59;90.01;94218.94;5075420;28;20424;-61
2020/12/05 03:49:54;;;;;;;13.00;10.73;;;;;;;4.53;90.37;94230.28;5075495;28;20202;-62
2020/12/05 03:52:20;;;;;;;12.20;10.90;;;;;;;4.33;91.26;94231.88;5075628;28;20194;-60
2020/12/05 03:54:45;;;;;;;12.33;10.67;;;;;;;4.35;91.87;94222.03;5076853;28;20255;-63
2020/12/05 03:57:11;;;;;;;12.07;10.30;;;;;;;4.15;92.65;94233.69;5075226;28;20176;-61
2020/12/05 03:59:36;;;;;;;12.57;11.27;;;;;;;4.24;92.94;94238.50;5075318;28;20273;-63
2020/12/05 04:02:02;;;;;;;13.67;11.20;;;;;;;4.26;92.00;94234.63;5075958;28;20169;-61
2020/12/05 04:04:27;;;;;;;13.40;11.23;;;;;;;4.37;91.68;94249.31;5075469;28;20181;-62
2020/12/05 04:06:52;;;;;;;14.43;11.47;;;;;;;4.27;91.93;94264.00;5075412;28;20204;-63
2020/12/05 04:09:18;;;;;;;12.70;10.93;;;;;;;4.04;93.94;94267.56;5075487;28;20276;-63
2020/12/05 04:11:43;;;;;;;12.67;10.70;;;;;;;4.09;93.35;94275.44;5075357;28;20204;-63
2020/12/05 04:14:10;;;;;;;12.40;10.60;;;;;;;4.18;92.82;94281.81;5075083;28;20181;-61
2020/12/05 04:16:36;;;;;;;13.13;10.30;;;;;;;4.12;93.10;94283.53;5074613;28;20935;-62
2020/12/05 04:19:02;;;;;;;13.47;10.47;;;;;;;4.18;93.62;94274.00;5075243;28;20970;-63
2020/12/05 04:21:27;;;;;;;10.60;9.50;;;;;;;4.33;93.51;94299.44;5076135;28;20450;-63
2020/12/05 04:23:55;;;;;;;10.83;9.03;;;;;;;4.24;92.93;94298.25;5075190;28;20264;-61
2020/12/05 04:26:24;;;;;;;10.13;8.17;;;;;;;4.27;93.14;94323.78;5074738;28;20231;-62
2020/12/05 04:28:50;;;;;;;9.43;8.20;;;;;;;4.19;93.94;94312.75;5074428;28;20432;-62
2020/12/05 04:31:16;;;;;;;9.13;8.00;;;;;;;4.65;92.88;94301.19;5075012;28;20454;-63
2020/12/05 04:33:42;;;;;;;13.40;9.70;;;;;;;4.96;90.47;94284.94;5075038;28;20415;-62
2020/12/05 04:36:07;;;;;;;11.07;9.50;;;;;;;5.08;89.66;94293.41;5074917;28;20517;-63
2020/12/05 04:38:33;;;;;;;13.00;10.80;;;;;;;5.24;89.05;94308.19;5074340;28;20416;-63
2020/12/05 04:41:00;;;;;;;10.90;9.40;;;;;;;5.25;88.38;94286.31;5081310;28;20181;-60
2020/12/05 04:43:25;;;;;;;11.47;9.60;;;;;;;5.37;87.65;94278.38;5085667;28;20188;-61
2020/12/05 04:45:52;;;;;;;11.93;10.03;;;;;;;5.40;86.82;94271.91;5074829;28;20407;-63
2020/12/05 04:48:19;;;;;;;11.93;10.17;;;;;;;5.28;87.95;94286.84;5073850;28;20177;-62
2020/12/05 04:50:46;;;;;;;11.50;10.30;;;;;;;5.36;86.66;94274.22;5074549;28;20468;-61
2020/12/05 04:53:17;;;;;;;10.43;9.33;;;;;;;5.02;87.42;94294.38;5074781;28;20838;-61
2020/12/05 04:55:43;;;;;;;10.23;9.20;;;;;;;4.83;88.12;94319.13;5074495;28;20412;-63
2020/12/05 04:58:19;;;;;;;11.63;9.53;;;;;;;4.53;89.58;94323.91;5074175;28;20412;-61
2020/12/05 05:00:46;;;;;;;11.33;8.77;;;;;;;4.69;89.95;94324.91;5073188;28;20228;-63
2020/12/05 05:03:15;;;;;;;11.10;9.43;;;;;;;4.74;89.72;94335.38;5074254;28;20800;-64
2020/12/05 05:05:40;;;;;;;10.53;9.17;;;;;;;4.87;89.02;94353.25;5081916;28;20519;-63
2020/12/05 05:08:06;;;;;;;10.90;8.97;;;;;;;4.82;88.64;94374.00;5073949;28;20400;-63
2020/12/05 05:10:33;;;;;;;10.53;8.77;;;;;;;4.94;88.21;94387.69;5072936;28;20264;-63
2020/12/05 05:13:04;;;;;;;9.73;8.43;;;;;;;4.72;89.95;94395.44;5074307;28;20200;-62
2020/12/05 05:15:31;;;;;;;9.83;8.83;;;;;;;4.65;90.16;94407.03;5075196;28;20902;-63
2020/12/05 05:17:58;;;;;;;10.53;8.80;;;;;;;4.78;89.46;94404.88;5073767;28;20435;-63
2020/12/05 05:20:24;;;;;;;9.47;7.93;;;;;;;4.79;89.13;94405.66;5073597;28;20438;-61
2020/12/05 05:22:54;;;;;;;10.17;7.90;;;;;;;4.55;91.19;94394.66;5073723;28;20428;-61
2020/12/05 05:25:21;;;;;;;11.17;8.73;;;;;;;4.60;89.82;94405.13;5074127;28;20537;-61
2020/12/05 05:28:06;;;;;;;9.07;7.90;;;;;;;4.55;90.87;94414.69;5073452;28;20893;-63
2020/12/05 05:30:32;;;;;;;10.33;8.07;;;;;;;4.68;90.53;94416.94;5072287;28;20444;-61
2020/12/05 05:33:05;;;;;;;8.43;6.97;;;;;;;4.63;90.54;94432.47;5074821;28;20459;-63
2020/12/05 05:35:35;;;;;;;12.03;7.60;;;;;;;4.40;91.23;94427.41;5073928;28;20167;-61
2020/12/05 05:38:02;;;;;;;8.20;7.40;;;;;;;4.47;91.49;94438.44;5073158;28;20436;-61
2020/12/05 05:40:27;;;;;;;8.90;7.30;;;;;;;4.22;92.13;94437.00;5073534;28;20600;-63
2020/12/05 05:42:53;;;;;;;8.63;7.83;;;;;;;4.22;92.49;94443.22;5073692;28;20494;-61
2020/12/05 05:45:23;;;;;;;11.60;7.80;;;;;;;4.08;92.93;94443.50;5078616;28;20544;-60
2020/12/05 05:48:02;;;;;;;10.27;8.27;;;;;;;4.25;93.28;94448.75;5093630;28;20169;-63
2020/12/05 05:50:35;;;;;;;6.80;6.00;;;;;;;4.41;91.79;94466.19;5093886;28;20505;-61
2020/12/05 05:53:02;;;;;;;7.67;6.83;;;;;;;4.35;91.96;94459.31;5079663;28;20460;-63
2020/12/05 05:55:44;;;;;;;6.97;6.40;;;;;;;4.51;91.70;94478.56;5073472;28;21015;-61
2020/12/05 05:58:11;;;;;;;13.33;6.30;;;;;;;4.41;91.47;94458.38;5072804;28;21021;-61
2020/12/05 06:00:42;;;;;;;7.13;6.43;;;;;;;4.41;91.35;94454.97;5084616;28;20449;-61
2020/12/05 06:03:43;;;;;;;6.37;5.77;;;;;;;4.50;91.67;94454.38;5093842;28;20493;-63
2020/12/05 06:06:09;;;;;;;6.57;5.97;;;;;;;4.46;91.93;94457.66;5083082;28;20419;-63
2020/12/05 06:08:35;;;;;;;6.77;6.07;;;;;;;4.37;91.43;94449.47;5093145;28;20496;-63
2020/12/05 06:11:09;;;;;;;6.73;5.93;;;;;;;4.56;90.80;94453.44;5093510;28;20423;-61
2020/12/05 06:13:35;;;;;;;7.23;6.53;;;;;;;4.70;90.58;94459.91;5081257;28;20418;-61
2020/12/05 06:16:02;;;;;;;6.50;5.10;;;;;;;4.69;90.30;94466.09;5093552;28;20416;-63
2020/12/05 06:18:28;;;;;;;6.47;5.80;;;;;;;4.79;89.37;94475.91;5093130;28;20181;-63
2020/12/05 06:20:54;;;;;;;6.17;5.57;;;;;;;4.68;89.70;94476.75;5093402;28;20501;-63
2020/12/05 06:23:41;;;;;;;6.70;6.10;;;;;;;4.73;89.18;94476.84;5093341;28;20901;-63
2020/12/05 06:26:08;;;;;;;7.63;6.40;;;;;;;4.92;88.92;94502.41;5092993;28;20868;-63
2020/12/05 06:28:37;;;;;;;7.30;5.80;;;;;;;5.07;88.53;94492.19;5064748;28;20801;-63
2020/12/05 06:31:03;;;;;;;5.87;5.30;;;;;;;5.12;87.63;94515.72;5073032;28;20544;-63
2020/12/05 06:33:45;;;;;;;5.13;4.40;;;;;;;5.20;88.09;94535.34;5073252;28;20417;-63
2020/12/05 06:36:29;;;;;;;5.83;5.30;;;;;;;5.19;86.50;94537.16;5072672;28;20188;-62
2020/12/05 06:39:06;;;;;;;5.13;4.63;;;;;;;4.90;87.59;94537.47;5073113;28;20792;-64
2020/12/05 06:41:40;;;;;;;5.67;4.87;;;;;;;4.92;88.20;94543.22;5078902;28;20491;-61
2020/12/05 06:44:15;;;;;;;5.90;5.27;;;;;;;4.82;88.14;94556.09;5093443;28;20433;-61
2020/12/05 06:46:53;;;;;;;5.53;5.00;;;;;;;4.84;88.09;94556.59;5091171;28;20414;-62
2020/12/05 06:49:36;;;;;;;5.60;5.10;;;;;;;4.91;87.91;94552.06;5072668;28;20509;-61
2020/12/05 06:52:26;;;;;;;6.13;5.40;;;;;;;5.02;87.90;94553.78;5072898;28;20780;-63
2020/12/05 06:55:04;;;;;;;5.43;4.93;;;;;;;4.97;87.66;94546.69;5073024;28;20401;-61
2020/12/05 06:57:31;;;;;;;5.80;5.23;;;;;;;5.14;87.58;94557.13;5072704;28;21010;-63
2020/12/05 07:00:14;;;;;;;5.43;4.93;;;;;;;5.21;86.63;94573.38;5072806;28;20427;-63
2020/12/05 07:02:49;;;;;;;4.63;4.20;;;;;;;5.00;87.05;94574.84;5072889;28;20411;-63
2020/12/05 07:05:20;;;;;;;5.70;5.03;;;;;;;5.07;87.20;94575.47;5072535;28;20427;-61
2020/12/05 07:07:51;;;;;;;5.77;5.07;;;;;;;5.22;86.83;94577.53;5072230;28;20435;-61
2020/12/05 07:10:18;;;;;;;6.00;4.33;;;;;;;5.35;86.70;94579.84;5074063;28;20494;-63
2020/12/05 07:12:44;;;;;;;6.50;4.70;;;;;;;5.40;85.64;94568.72;5073259;28;20452;-61
2020/12/05 07:15:27;;;;;;;6.40;5.47;;;;;;;5.47;86.07;94569.34;5076108;28;20634;-63
2020/12/05 07:17:56;;;;;;;5.20;4.70;;;;;;;5.53;85.36;94578.78;5075937;28;20510;-61
2020/12/05 07:20:23;;;;;;;5.77;4.83;;;;;;;5.57;84.78;94561.66;5076406;28;20942;-63
2020/12/05 07:22:50;;;;;;;7.40;6.10;;;;;;;5.57;85.29;94559.84;5076764;28;20937;-63
2020/12/05 07:25:16;;;;;;;6.90;5.60;;;;;;;5.57;83.94;94561.66;5090760;28;20416;-63
2020/12/05 07:27:42;;;;;;;6.07;4.43;;;;;;;5.47;84.60;94557.09;5094219;28;20947;-63
2020/12/05 07:30:08;;;;;;;6.90;4.37;;;;;;;5.38;84.65;94558.53;5084969;28;20668;-61
2020/12/05 07:32:36;;;;;;;5.10;3.60;;;;;;;5.37;85.84;94566.56;5076063;28;20507;-61
2020/12/05 07:35:10;;;;;;;5.03;3.67;;;;;;;5.36;85.69;94563.19;5075949;28;20403;-62
2020/12/05 07:37:35;;;;;;;5.40;3.50;;;;;;;5.45;85.42;94574.00;5081456;28;20909;-61
2020/12/05 07:40:06;;;;;;;3.77;3.30;;;;;;;5.35;84.70;94581.63;5096342;28;20513;-61
2020/12/05 07:42:33;;;;;;;3.57;3.27;;;;;;;5.29;85.44;94580.78;5096253;28;20196;-63
2020/12/05 07:45:12;;;;;;;4.00;3.60;;;;;;;5.43;86.07;94589.88;5079399;28;20425;-61
2020/12/05 07:47:39;;;;;;;4.77;4.10;;;;;;;5.49;84.92;94609.72;5075499;28;20423;-63
2020/12/05 07:50:06;;;;;;;4.53;3.83;;;;;;;5.24;86.20;94611.94;5075657;28;20482;-61
2020/12/05 07:52:32;;;;;;;4.23;3.93;;;;;;;5.28;85.75;94609.66;5076000;28;20788;-61
2020/12/05 07:55:00;;;;;;;5.13;3.10;;;;;;;5.31;86.70;94615.16;5075728;28;20499;-63
2020/12/05 07:57:34;;;;;;;6.10;3.87;;;;;;;5.52;85.51;94605.88;5075932;28;20716;-63
2020/12/05 08:00:12;;;;;;;4.63;4.23;;;;;;;5.54;85.48;94603.81;5068387;28;20535;-64
2020/12/05 08:03:13;;;;;;;3.50;2.80;;;;;;;5.29;86.06;94611.25;5095772;28;20828;-61
2020/12/05 08:06:04;;;;;;;4.20;3.23;;;;;;;5.28;85.49;94609.66;5042014;28;20967;-63
2020/12/05 08:08:29;;;;;;;4.10;3.23;;;;;;;4.83;87.64;94607.88;5074878;28;20422;-61
2020/12/05 08:11:02;;;;;;;4.37;3.50;;;;;;;4.96;87.43;94604.94;5075203;28;20781;-63
2020/12/05 08:13:30;;;;;;;9.70;3.20;;;;;;;4.81;88.91;94606.50;5075390;28;20191;-61
2020/12/05 08:16:06;;;;;;;2.70;2.50;;;;;;;5.02;88.10;94609.22;5075480;28;20417;-63
2020/12/05 08:18:33;;;;;;;4.33;2.60;;;;;;;4.74;89.02;94608.47;5074426;28;20415;-63
2020/12/05 08:21:00;;;;;;;7.50;2.53;;;;;;;4.74;89.64;94603.25;5074925;28;20442;-61
2020/12/05 08:23:44;;;;;;;3.20;2.57;;;;;;;5.01;88.66;94599.06;5077133;28;20506;-61
2020/12/05 08:26:19;;;;;;;2.33;2.13;;;;;;;5.29;87.96;94598.22;5081215;28;20443;-63
2020/12/05 08:28:48;;;;;;;4.03;3.13;;;;;;;5.06;87.53;94604.34;5075151;28;20437;-60
2020/12/05 08:31:14;;;;;;;3.53;2.27;;;;;;;4.99;88.63;94608.91;5074811;28;20451;-60
2020/12/05 08:33:48;;;;;;;4.03;2.30;;;;;;;5.07;89.20;94621.56;5074606;28;20420;-59
2020/12/05 08:36:36;;;;;;;6.83;2.47;;;;;;;4.75;90.04;94631.63;5073792;28;20509;-59
2020/12/05 08:39:08;;;;;;;5.10;2.03;;;;;;;4.64;91.39;94642.09;5064478;28;20516;-60
2020/12/05 08:41:42;;;;;;;3.63;2.40;;;;;;;4.49;93.46;94647.00;5074257;28;20407;-61
2020/12/05 08:44:09;;;;;;;2.27;2.07;;;;;;;4.75;91.16;94644.66;5074650;28;20420;-62
2020/12/05 08:46:35;;;;;;;4.57;2.33;;;;;;;4.92;90.37;94653.31;5074340;28;20408;-59
2020/12/05 08:49:21;;;;;;;5.33;2.57;;;;;;;5.17;89.50;94652.94;5074355;28;20525;-59
2020/12/05 08:51:57;;;;;;;1.93;1.67;;;;;;;5.29;88.60;94658.88;5073639;28;20196;-62
2020/12/05 08:54:22;;;;;;;2.70;1.90;;;;;;;5.29;87.75;94658.88;5074139;28;20482;-59
2020/12/05 08:56:48;;;;;;;2.43;2.23;;;;;;;5.39;87.89;94666.88;5073882;28;20428;-63
2020/12/05 08:59:24;;;;;;;2.67;2.30;;;;;;;5.49;86.83;94672.22;5072241;28;20643;-60
2020/12/05 09:01:52;;;;;;;4.77;2.43;;;;;;;5.35;87.94;94667.56;5073835;28;20585;-62
2020/12/05 09:04:28;;;;;;;2.30;2.10;;;;;;;5.42;88.09;94684.63;5074345;28;20409;-61
2020/12/05 09:06:54;;;;;;;2.90;2.30;;;;;;;5.56;87.50;94682.50;5073517;28;20428;-62
2020/12/05 09:09:29;;;;;;;2.40;2.00;;;;;;;5.71;86.72;94667.91;5073779;28;20448;-62
2020/12/05 09:12:06;;;;;;;3.07;2.70;;;;;;;5.92;86.51;94664.63;5074159;28;20504;-62
2020/12/05 09:14:31;;;;;;;5.53;2.03;;;;;;;6.11;85.35;94659.91;5067921;28;20431;-63
2020/12/05 09:16:56;;;;;;;2.33;2.13;;;;;;;6.31;84.36;94660.19;5069363;28;20433;-62
2020/12/05 09:19:24;;;;;;;2.20;2.03;;;;;;;6.40;84.91;94657.94;5070251;28;20194;-63
2020/12/05 09:21:49;;;;;;;3.67;3.13;;;;;;;6.52;83.71;94664.66;5069598;28;20181;-60
2020/12/05 09:24:15;;;;;;;2.93;2.60;;;;;;;6.62;84.28;94664.78;5069810;28;20792;-61
2020/12/05 09:26:55;;;;;;;5.13;3.30;;;;;;;6.79;83.26;94673.34;5069392;28;20221;-60
2020/12/05 09:29:20;;;;;;;4.07;3.40;;;;;;;6.89;82.62;94683.88;5070049;28;20680;-62
2020/12/05 09:31:56;;;;;;;3.30;2.90;;;;;;;6.86;83.34;94691.41;5069939;28;20509;-61
2020/12/05 09:34:37;;;;;;;3.60;1.93;;;;;;;6.96;82.13;94681.06;5070256;28;20228;-61
2020/12/05 09:37:13;;;;;;;6.87;2.33;;;;;;;7.02;81.53;94682.72;5068468;28;20811;-62
2020/12/05 09:39:39;;;;;;;1.90;1.80;;;;;;;7.13;81.02;94687.81;5071410;28;20447;-62
2020/12/05 09:42:05;;;;;;;2.20;2.10;;;;;;;7.20;81.35;94690.22;5072566;28;20561;-60
2020/12/05 09:44:31;;;;;;;4.20;3.63;;;;;;;7.26;81.15;94694.47;5073415;28;20412;-62
2020/12/05 09:46:57;;;;;;;4.57;3.60;;;;;;;7.35;80.55;94700.03;5073228;28;20417;-62
2020/12/05 09:49:22;;;;;;;6.23;4.17;;;;;;;7.33;80.42;94695.06;5073334;28;20980;-62
2020/12/05 09:51:48;;;;;;;6.07;4.43;;;;;;;7.38;80.29;94717.81;5073311;28;20282;-60
2020/12/05 09:54:13;;;;;;;8.10;4.57;;;;;;;7.23;80.98;94716.63;5072767;28;20184;-60
2020/12/05 09:56:38;;;;;;;5.00;4.60;;;;;;;7.30;80.96;94706.00;5072749;28;20603;-60
2020/12/05 09:59:04;;;;;;;5.60;4.80;;;;;;;7.32;80.89;94709.13;5073522;28;20195;-62
2020/12/05 10:01:29;;;;;;;4.97;4.40;;;;;;;7.41;81.24;94712.13;5073013;28;20236;-62
2020/12/05 10:03:55;;;;;;;5.07;4.57;;;;;;;7.41;80.13;94699.06;5072151;28;20179;-60
2020/12/05 10:06:21;;;;;;;8.17;5.17;;;;;;;7.22;81.27;94706.44;5073135;28;20220;-61
2020/12/05 10:08:47;;;;;;;4.93;4.47;;;;;;;7.25;80.76;94708.53;5072820;28;20437;-62
2020/12/05 10:11:12;;;;;;;6.80;4.30;;;;;;;7.30;80.30;94713.84;5073213;28;20402;-62
2020/12/05 10:13:37;;;;;;;6.97;4.90;;;;;;;7.37;80.59;94703.97;5072970;28;20210;-62
2020/12/05 10:16:03;;;;;;;4.97;4.40;;;;;;;7.35;80.13;94689.59;5072956;28;20183;-62
2020/12/05 10:18:28;;;;;;;6.00;5.40;;;;;;;7.41;80.08;94688.59;5072998;28;20686;-62
2020/12/05 10:20:54;;;;;;;7.20;5.83;;;;;;;7.45;79.48;94685.25;5072250;28;20239;-60
2020/12/05 10:23:19;;;;;;;9.37;6.83;;;;;;;7.47;80.26;94684.97;5072990;28;20208;-62
2020/12/05 10:25:44;;;;;;;7.83;6.30;;;;;;;7.49;80.09;94695.97;5072927;28;20228;-62
2020/12/05 10:28:10;;;;;;;7.43;6.17;;;;;;;7.47;80.58;94690.22;5072052;28;20556;-63
2020/12/05 10:30:35;;;;;;;8.87;7.23;;;;;;;7.50;79.85;94694.97;5073168;28;20190;-62
2020/12/05 10:33:01;;;;;;;8.33;7.50;;;;;;;7.46;80.00;94718.19;5072832;28;20739;-62
2020/12/05 10:35:26;;;;;;;8.53;7.67;;;;;;;7.36;80.47;94720.69;5072555;28;20299;-62
2020/12/05 10:37:51;;;;;;;10.07;8.90;;;;;;;7.37;79.98;94726.69;5072663;28;20254;-58
2020/12/05 10:40:17;;;;;;;10.87;9.63;;;;;;;7.37;79.60;94729.31;5073053;28;20240;-59
2020/12/05 10:42:42;;;;;;;11.00;10.00;;;;;;;7.42;79.87;94739.81;5073003;28;20250;-59
2020/12/05 10:45:07;;;;;;;13.20;9.80;;;;;;;7.38;79.25;94730.88;5072935;28;20187;-62
2020/12/05 10:47:33;;;;;;;10.50;9.50;;;;;;;7.34;79.46;94735.03;5072729;28;20577;-65
2020/12/05 10:49:58;;;;;;;11.50;10.30;;;;;;;7.27;79.45;94738.63;5076962;28;20192;-65
2020/12/05 10:52:23;;;;;;;13.33;12.10;;;;;;;7.18;80.50;94742.69;5075110;28;20273;-64
2020/12/05 10:54:49;;;;;;;15.50;12.43;;;;;;;7.14;81.07;94749.44;5076955;28;20171;-64
2020/12/05 10:57:14;;;;;;;16.17;14.03;;;;;;;7.07;80.50;94750.66;5076377;28;20226;-64
2020/12/05 10:59:40;;;;;;;14.50;13.10;;;;;;;7.08;80.52;94752.25;5076979;28;20760;-64
2020/12/05 11:02:05;;;;;;;15.40;13.90;;;;;;;7.10;80.14;94735.28;5075137;28;20182;-66
2020/12/05 11:04:30;;;;;;;13.70;12.27;;;;;;;7.09;81.02;94744.16;5076399;28;20537;-64
2020/12/05 11:06:56;;;;;;;14.70;12.37;;;;;;;7.09;80.77;94754.59;5076341;28;20167;-64
2020/12/05 11:09:21;;;;;;;17.30;12.70;;;;;;;7.13;80.37;94760.13;5076515;28;20278;-64
2020/12/05 11:11:46;;;;;;;12.73;11.47;;;;;;;7.13;80.59;94760.94;5075974;28;20564;-65
2020/12/05 11:14:12;;;;;;;10.90;9.67;;;;;;;7.04;81.79;94741.50;5076414;28;20164;-65
2020/12/05 11:16:37;;;;;;;11.90;10.70;;;;;;;7.16;80.63;94742.16;5076080;28;20182;-64
2020/12/05 11:19:03;;;;;;;14.57;10.73;;;;;;;7.16;81.58;94733.50;5076262;28;20186;-60
2020/12/05 11:21:28;;;;;;;12.50;11.23;;;;;;;7.15;80.92;94724.13;5076351;28;20171;-62
2020/12/05 11:23:54;;;;;;;13.50;10.67;;;;;;;7.19;81.35;94730.44;5076253;28;20176;-60
2020/12/05 11:26:21;;;;;;;10.63;9.63;;;;;;;7.25;80.99;94724.22;5075306;28;20206;-58
2020/12/05 11:28:47;;;;;;;11.00;9.93;;;;;;;7.25;81.72;94725.00;5068888;28;20176;-58
2020/12/05 11:31:12;;;;;;;10.30;9.30;;;;;;;7.33;81.01;94726.41;5075598;28;20774;-58
2020/12/05 11:33:38;;;;;;;10.17;9.00;;;;;;;7.37;80.59;94731.91;5075834;28;20171;-71
2020/12/05 11:36:03;;;;;;;11.27;9.90;;;;;;;7.43;80.58;94730.94;5060472;28;20172;-63
2020/12/05 11:38:29;;;;;;;11.57;9.10;;;;;;;7.44;80.67;94729.91;5055648;28;20526;-63